sensor_id;sensor_type;location;lat;lon;timestamp;temperature;humidity
35804;DHT22;21924;51.934;7.414;2022-09-27T00:02:33;10.60;99.90
35804;DHT22;21924;51.934;7.414;2022-09-27T00:05:17;10.60;99.90
35804;DHT22;21924;51.934;7.414;2022-09-27T00:08:01;10.50;99.90
35804;DHT22;21924;51.934;7.414;2022-09-27T00:10:45;10.50;99.90
35804;DHT22;21924;51.934;7.414;2022-09-27T00:13:29;10.50;99.90
35804;DHT22;21924;51.934;7.414;2022-09-27T00:16:13;10.40;99.90
35804;DHT22;21924;51.934;7.414;2022-09-27T00:18:58;10.40;99.90
35804;DHT22;21924;51.934;7.414;2022-09-27T00:21:43;10.40;99.90
35804;DHT22;21924;51.934;7.414;2022-09-27T00:24:28;10.40;99.90
35804;DHT22;21924;51.934;7.414;2022-09-27T00:27:12;10.40;99.90
35804;DHT22;21924;51.934;7.414;2022-09-27T00:29:56;10.40;99.90
35804;DHT22;21924;51.934;7.414;2022-09-27T00:32:40;10.30;99.90
35804;DHT22;21924;51.934;7.414;2022-09-27T00:35:24;10.30;99.90
35804;DHT22;21924;51.934;7.414;2022-09-27T00:38:08;10.30;99.90
35804;DHT22;21924;51.934;7.414;2022-09-27T00:40:52;10.30;99.90
35804;DHT22;21924;51.934;7.414;2022-09-27T00:43:47;10.30;99.90
35804;DHT22;21924;51.934;7.414;2022-09-27T00:46:39;10.30;99.90
35804;DHT22;21924;51.934;7.414;2022-09-27T00:49:31;10.30;99.90
35804;DHT22;21924;51.934;7.414;2022-09-27T00:52:20;10.30;99.90
35804;DHT22;21924;51.934;7.414;2022-09-27T00:55:07;10.30;99.90
35804;DHT22;21924;51.934;7.414;2022-09-27T00:57:53;10.30;99.90
35804;DHT22;21924;51.934;7.414;2022-09-27T01:00:37;10.30;99.90
35804;DHT22;21924;51.934;7.414;2022-09-27T01:03:30;10.30;99.90
35804;DHT22;21924;51.934;7.414;2022-09-27T01:06:17;10.20;99.90
35804;DHT22;21924;51.934;7.414;2022-09-27T01:09:03;10.20;99.90
35804;DHT22;21924;51.934;7.414;2022-09-27T01:11:50;10.20;99.90
35804;DHT22;21924;51.934;7.414;2022-09-27T01:14:40;10.20;99.90
35804;DHT22;21924;51.934;7.414;2022-09-27T01:17:32;10.20;99.90
35804;DHT22;21924;51.934;7.414;2022-09-27T01:28:57;10.10;99.90
35804;DHT22;21924;51.934;7.414;2022-09-27T01:31:48;10.10;99.90
35804;DHT22;21924;51.934;7.414;2022-09-27T01:38:10;10.10;99.90
35804;DHT22;21924;51.934;7.414;2022-09-27T01:40:28;10.10;99.90
35804;DHT22;21924;51.934;7.414;2022-09-27T01:46:04;10.10;99.90
35804;DHT22;21924;51.934;7.414;2022-09-27T01:48:50;10.10;99.90
35804;DHT22;21924;51.934;7.414;2022-09-27T01:51:36;10.10;99.90
35804;DHT22;21924;51.934;7.414;2022-09-27T01:54:23;10.10;99.90
35804;DHT22;21924;51.934;7.414;2022-09-27T01:57:07;10.10;99.90
35804;DHT22;21924;51.934;7.414;2022-09-27T01:59:55;10.10;99.90
35804;DHT22;21924;51.934;7.414;2022-09-27T02:02:43;10.10;99.90
35804;DHT22;21924;51.934;7.414;2022-09-27T02:05:35;10.10;99.90
35804;DHT22;21924;51.934;7.414;2022-09-27T02:08:34;10.10;99.90
35804;DHT22;21924;51.934;7.414;2022-09-27T02:11:19;10.10;99.90
35804;DHT22;21924;51.934;7.414;2022-09-27T02:16:55;10.10;99.90
35804;DHT22;21924;51.934;7.414;2022-09-27T02:22:49;10.00;99.90
35804;DHT22;21924;51.934;7.414;2022-09-27T02:25:43;10.00;99.90
35804;DHT22;21924;51.934;7.414;2022-09-27T02:28:32;9.90;99.90
35804;DHT22;21924;51.934;7.414;2022-09-27T02:31:17;9.90;99.90
35804;DHT22;21924;51.934;7.414;2022-09-27T02:34:04;9.90;99.90
35804;DHT22;21924;51.934;7.414;2022-09-27T02:36:50;9.80;99.90
35804;DHT22;21924;51.934;7.414;2022-09-27T02:39:36;9.80;99.90
35804;DHT22;21924;51.934;7.414;2022-09-27T02:42:20;9.80;99.90
35804;DHT22;21924;51.934;7.414;2022-09-27T02:45:04;9.80;99.90
35804;DHT22;21924;51.934;7.414;2022-09-27T02:56:08;9.80;99.90
35804;DHT22;21924;51.934;7.414;2022-09-27T03:01:50;9.80;99.90
35804;DHT22;21924;51.934;7.414;2022-09-27T03:07:24;9.80;99.90
35804;DHT22;21924;51.934;7.414;2022-09-27T03:10:16;9.80;99.90
35804;DHT22;21924;51.934;7.414;2022-09-27T03:13:01;9.80;99.90
35804;DHT22;21924;51.934;7.414;2022-09-27T03:15:47;9.70;99.90
35804;DHT22;21924;51.934;7.414;2022-09-27T03:18:32;9.70;99.90
35804;DHT22;21924;51.934;7.414;2022-09-27T03:21:16;9.70;99.90
35804;DHT22;21924;51.934;7.414;2022-09-27T03:24:00;9.70;99.90
35804;DHT22;21924;51.934;7.414;2022-09-27T03:26:44;9.60;99.90
35804;DHT22;21924;51.934;7.414;2022-09-27T03:29:28;9.60;99.90
35804;DHT22;21924;51.934;7.414;2022-09-27T03:32:12;9.50;99.90
35804;DHT22;21924;51.934;7.414;2022-09-27T03:34:56;9.40;99.90
35804;DHT22;21924;51.934;7.414;2022-09-27T03:37:41;9.30;99.90
35804;DHT22;21924;51.934;7.414;2022-09-27T03:40:25;9.30;99.90
35804;DHT22;21924;51.934;7.414;2022-09-27T03:43:09;9.30;99.90
35804;DHT22;21924;51.934;7.414;2022-09-27T03:45:53;9.30;99.90
35804;DHT22;21924;51.934;7.414;2022-09-27T03:48:37;9.40;99.90
35804;DHT22;21924;51.934;7.414;2022-09-27T03:51:21;9.40;99.90
35804;DHT22;21924;51.934;7.414;2022-09-27T03:54:05;9.40;99.90
35804;DHT22;21924;51.934;7.414;2022-09-27T03:56:50;9.40;99.90
35804;DHT22;21924;51.934;7.414;2022-09-27T03:59:34;9.40;99.90
35804;DHT22;21924;51.934;7.414;2022-09-27T04:02:18;9.50;99.90
35804;DHT22;21924;51.934;7.414;2022-09-27T04:05:03;9.50;99.90
35804;DHT22;21924;51.934;7.414;2022-09-27T04:07:47;9.40;99.90
35804;DHT22;21924;51.934;7.414;2022-09-27T04:10:32;9.40;99.90
35804;DHT22;21924;51.934;7.414;2022-09-27T04:13:16;9.50;99.90
35804;DHT22;21924;51.934;7.414;2022-09-27T04:16:00;9.50;99.90
35804;DHT22;21924;51.934;7.414;2022-09-27T04:18:46;9.40;99.90
35804;DHT22;21924;51.934;7.414;2022-09-27T04:21:30;9.40;99.90
35804;DHT22;21924;51.934;7.414;2022-09-27T04:24:14;9.30;99.90
35804;DHT22;21924;51.934;7.414;2022-09-27T04:26:58;9.30;99.90
35804;DHT22;21924;51.934;7.414;2022-09-27T04:29:42;9.20;99.90
35804;DHT22;21924;51.934;7.414;2022-09-27T04:32:28;9.20;99.90
35804;DHT22;21924;51.934;7.414;2022-09-27T04:35:13;9.20;99.90
35804;DHT22;21924;51.934;7.414;2022-09-27T04:38:16;9.20;99.90
35804;DHT22;21924;51.934;7.414;2022-09-27T04:41:03;9.20;99.90
35804;DHT22;21924;51.934;7.414;2022-09-27T04:43:47;9.20;99.90
35804;DHT22;21924;51.934;7.414;2022-09-27T04:46:31;9.20;99.90
35804;DHT22;21924;51.934;7.414;2022-09-27T04:49:17;9.20;99.90
35804;DHT22;21924;51.934;7.414;2022-09-27T04:52:01;9.20;99.90
35804;DHT22;21924;51.934;7.414;2022-09-27T04:54:46;9.20;99.90
35804;DHT22;21924;51.934;7.414;2022-09-27T04:57:31;9.20;99.90
35804;DHT22;21924;51.934;7.414;2022-09-27T05:00:15;9.20;99.90
35804;DHT22;21924;51.934;7.414;2022-09-27T05:02:59;9.30;99.90
35804;DHT22;21924;51.934;7.414;2022-09-27T05:05:44;9.30;99.90
35804;DHT22;21924;51.934;7.414;2022-09-27T05:08:28;9.30;99.90
35804;DHT22;21924;51.934;7.414;2022-09-27T05:11:12;9.20;99.90
35804;DHT22;21924;51.934;7.414;2022-09-27T05:13:56;9.30;99.90
35804;DHT22;21924;51.934;7.414;2022-09-27T05:16:40;9.30;99.90
35804;DHT22;21924;51.934;7.414;2022-09-27T05:19:25;9.30;99.90
35804;DHT22;21924;51.934;7.414;2022-09-27T05:22:08;9.30;99.90
35804;DHT22;21924;51.934;7.414;2022-09-27T05:24:53;9.30;99.90
35804;DHT22;21924;51.934;7.414;2022-09-27T05:27:37;9.40;99.90
35804;DHT22;21924;51.934;7.414;2022-09-27T05:30:21;9.40;99.90
35804;DHT22;21924;51.934;7.414;2022-09-27T05:33:05;9.40;99.90
35804;DHT22;21924;51.934;7.414;2022-09-27T05:35:52;9.40;99.90
35804;DHT22;21924;51.934;7.414;2022-09-27T05:38:37;9.40;99.90
35804;DHT22;21924;51.934;7.414;2022-09-27T05:41:21;9.40;99.90
35804;DHT22;21924;51.934;7.414;2022-09-27T05:44:05;9.50;99.90
35804;DHT22;21924;51.934;7.414;2022-09-27T05:46:49;9.50;99.90
35804;DHT22;21924;51.934;7.414;2022-09-27T05:49:33;9.40;99.90
35804;DHT22;21924;51.934;7.414;2022-09-27T05:52:17;9.40;99.90
35804;DHT22;21924;51.934;7.414;2022-09-27T05:55:01;9.50;99.90
35804;DHT22;21924;51.934;7.414;2022-09-27T05:57:55;9.50;99.90
35804;DHT22;21924;51.934;7.414;2022-09-27T06:00:39;9.50;99.90
35804;DHT22;21924;51.934;7.414;2022-09-27T06:03:23;9.60;99.90
35804;DHT22;21924;51.934;7.414;2022-09-27T06:06:07;9.60;99.90
35804;DHT22;21924;51.934;7.414;2022-09-27T06:08:53;9.70;99.90
35804;DHT22;21924;51.934;7.414;2022-09-27T06:11:37;9.80;99.90
35804;DHT22;21924;51.934;7.414;2022-09-27T06:14:21;9.90;99.90
35804;DHT22;21924;51.934;7.414;2022-09-27T06:17:05;10.00;99.90
35804;DHT22;21924;51.934;7.414;2022-09-27T06:19:49;10.00;99.90
35804;DHT22;21924;51.934;7.414;2022-09-27T06:22:34;10.00;99.90
35804;DHT22;21924;51.934;7.414;2022-09-27T06:25:19;10.00;99.90
35804;DHT22;21924;51.934;7.414;2022-09-27T06:28:03;9.80;99.90
35804;DHT22;21924;51.934;7.414;2022-09-27T06:30:48;9.80;99.90
35804;DHT22;21924;51.934;7.414;2022-09-27T06:33:33;9.80;99.90
35804;DHT22;21924;51.934;7.414;2022-09-27T06:36:17;9.80;99.90
35804;DHT22;21924;51.934;7.414;2022-09-27T06:39:01;9.80;99.90
35804;DHT22;21924;51.934;7.414;2022-09-27T06:41:45;9.70;99.90
35804;DHT22;21924;51.934;7.414;2022-09-27T06:44:30;9.70;99.90
35804;DHT22;21924;51.934;7.414;2022-09-27T06:47:17;9.80;99.90
35804;DHT22;21924;51.934;7.414;2022-09-27T06:50:01;9.80;99.90
35804;DHT22;21924;51.934;7.414;2022-09-27T06:52:49;9.80;99.90
35804;DHT22;21924;51.934;7.414;2022-09-27T06:55:33;9.70;99.90
35804;DHT22;21924;51.934;7.414;2022-09-27T06:58:17;9.70;99.90
35804;DHT22;21924;51.934;7.414;2022-09-27T07:01:20;9.70;99.90
35804;DHT22;21924;51.934;7.414;2022-09-27T07:04:04;9.80;99.90
35804;DHT22;21924;51.934;7.414;2022-09-27T07:06:50;9.80;99.90
35804;DHT22;21924;51.934;7.414;2022-09-27T07:09:35;9.70;99.90
35804;DHT22;21924;51.934;7.414;2022-09-27T07:12:23;9.80;99.90
35804;DHT22;21924;51.934;7.414;2022-09-27T07:15:07;9.90;99.90
35804;DHT22;21924;51.934;7.414;2022-09-27T07:17:57;9.90;99.90
35804;DHT22;21924;51.934;7.414;2022-09-27T07:20:42;9.90;99.90
35804;DHT22;21924;51.934;7.414;2022-09-27T07:23:26;10.00;99.90
35804;DHT22;21924;51.934;7.414;2022-09-27T07:26:10;10.00;99.90
35804;DHT22;21924;51.934;7.414;2022-09-27T07:28:55;10.00;99.90
35804;DHT22;21924;51.934;7.414;2022-09-27T07:31:40;10.10;99.90
35804;DHT22;21924;51.934;7.414;2022-09-27T07:34:25;10.10;99.90
35804;DHT22;21924;51.934;7.414;2022-09-27T07:37:10;10.20;99.90
35804;DHT22;21924;51.934;7.414;2022-09-27T07:39:54;10.20;99.90
35804;DHT22;21924;51.934;7.414;2022-09-27T07:42:39;10.30;99.90
35804;DHT22;21924;51.934;7.414;2022-09-27T07:45:27;10.20;99.90
35804;DHT22;21924;51.934;7.414;2022-09-27T07:48:12;10.30;99.90
35804;DHT22;21924;51.934;7.414;2022-09-27T07:50:57;10.30;99.90
35804;DHT22;21924;51.934;7.414;2022-09-27T07:53:41;10.30;99.90
35804;DHT22;21924;51.934;7.414;2022-09-27T07:56:25;10.20;99.90
35804;DHT22;21924;51.934;7.414;2022-09-27T07:59:09;10.10;99.90
35804;DHT22;21924;51.934;7.414;2022-09-27T08:01:54;10.10;99.90
35804;DHT22;21924;51.934;7.414;2022-09-27T08:04:38;10.10;99.90
35804;DHT22;21924;51.934;7.414;2022-09-27T08:07:22;10.00;99.90
35804;DHT22;21924;51.934;7.414;2022-09-27T08:10:07;10.00;99.90
35804;DHT22;21924;51.934;7.414;2022-09-27T08:12:51;10.10;99.90
35804;DHT22;21924;51.934;7.414;2022-09-27T08:15:35;10.10;99.90
35804;DHT22;21924;51.934;7.414;2022-09-27T08:18:22;10.10;99.90
35804;DHT22;21924;51.934;7.414;2022-09-27T08:21:07;10.20;99.90
35804;DHT22;21924;51.934;7.414;2022-09-27T08:23:51;10.40;99.90
35804;DHT22;21924;51.934;7.414;2022-09-27T08:26:36;10.50;99.90
35804;DHT22;21924;51.934;7.414;2022-09-27T08:29:20;10.70;99.90
35804;DHT22;21924;51.934;7.414;2022-09-27T08:32:04;10.80;99.90
35804;DHT22;21924;51.934;7.414;2022-09-27T08:34:49;10.70;99.90
35804;DHT22;21924;51.934;7.414;2022-09-27T08:37:33;10.70;99.90
35804;DHT22;21924;51.934;7.414;2022-09-27T08:40:16;10.80;99.90
35804;DHT22;21924;51.934;7.414;2022-09-27T08:43:05;10.80;99.90
35804;DHT22;21924;51.934;7.414;2022-09-27T08:45:58;10.90;99.90
35804;DHT22;21924;51.934;7.414;2022-09-27T08:48:47;10.80;99.90
35804;DHT22;21924;51.934;7.414;2022-09-27T08:51:32;10.90;99.90
35804;DHT22;21924;51.934;7.414;2022-09-27T08:54:24;10.80;99.90
35804;DHT22;21924;51.934;7.414;2022-09-27T08:57:12;10.80;99.90
35804;DHT22;21924;51.934;7.414;2022-09-27T09:00:07;10.70;99.90
35804;DHT22;21924;51.934;7.414;2022-09-27T09:02:54;10.60;99.90
35804;DHT22;21924;51.934;7.414;2022-09-27T09:05:39;10.60;99.90
35804;DHT22;21924;51.934;7.414;2022-09-27T09:11:08;10.80;99.90
35804;DHT22;21924;51.934;7.414;2022-09-27T09:20:12;11.10;99.90
35804;DHT22;21924;51.934;7.414;2022-09-27T09:23:13;11.10;99.90
35804;DHT22;21924;51.934;7.414;2022-09-27T09:28:51;11.20;99.90
35804;DHT22;21924;51.934;7.414;2022-09-27T09:37:13;11.40;99.90
35804;DHT22;21924;51.934;7.414;2022-09-27T09:40:02;11.30;99.90
35804;DHT22;21924;51.934;7.414;2022-09-27T09:42:52;11.10;99.90
35804;DHT22;21924;51.934;7.414;2022-09-27T09:45:40;11.20;99.90
35804;DHT22;21924;51.934;7.414;2022-09-27T09:48:33;11.30;99.90
35804;DHT22;21924;51.934;7.414;2022-09-27T09:51:21;11.40;99.90
35804;DHT22;21924;51.934;7.414;2022-09-27T09:54:12;11.50;99.90
35804;DHT22;21924;51.934;7.414;2022-09-27T09:57:05;11.50;99.90
35804;DHT22;21924;51.934;7.414;2022-09-27T09:59:56;11.50;99.90
35804;DHT22;21924;51.934;7.414;2022-09-27T10:02:42;11.40;99.90
35804;DHT22;21924;51.934;7.414;2022-09-27T10:05:27;11.50;99.90
35804;DHT22;21924;51.934;7.414;2022-09-27T10:08:15;11.70;99.90
35804;DHT22;21924;51.934;7.414;2022-09-27T10:11:00;12.00;99.90
35804;DHT22;21924;51.934;7.414;2022-09-27T10:13:44;12.20;99.90
35804;DHT22;21924;51.934;7.414;2022-09-27T10:16:28;12.30;99.90
35804;DHT22;21924;51.934;7.414;2022-09-27T10:19:17;12.20;99.90
35804;DHT22;21924;51.934;7.414;2022-09-27T10:22:21;12.10;99.90
35804;DHT22;21924;51.934;7.414;2022-09-27T10:25:07;11.80;99.90
35804;DHT22;21924;51.934;7.414;2022-09-27T10:27:51;11.80;99.90
35804;DHT22;21924;51.934;7.414;2022-09-27T10:30:35;11.80;99.90
35804;DHT22;21924;51.934;7.414;2022-09-27T10:33:21;12.00;99.90
35804;DHT22;21924;51.934;7.414;2022-09-27T10:36:20;12.00;99.90
35804;DHT22;21924;51.934;7.414;2022-09-27T10:39:05;12.10;99.90
35804;DHT22;21924;51.934;7.414;2022-09-27T10:41:49;12.10;99.90
35804;DHT22;21924;51.934;7.414;2022-09-27T10:44:34;12.20;99.90
35804;DHT22;21924;51.934;7.414;2022-09-27T10:47:19;12.00;99.90
35804;DHT22;21924;51.934;7.414;2022-09-27T10:50:05;12.00;99.90
35804;DHT22;21924;51.934;7.414;2022-09-27T10:53:11;11.70;99.90
35804;DHT22;21924;51.934;7.414;2022-09-27T10:55:56;11.50;99.90
35804;DHT22;21924;51.934;7.414;2022-09-27T10:58:40;11.30;99.90
35804;DHT22;21924;51.934;7.414;2022-09-27T11:01:38;11.20;99.90
35804;DHT22;21924;51.934;7.414;2022-09-27T11:04:26;11.20;99.90
35804;DHT22;21924;51.934;7.414;2022-09-27T11:07:15;11.10;99.90
35804;DHT22;21924;51.934;7.414;2022-09-27T11:09:59;11.00;99.90
35804;DHT22;21924;51.934;7.414;2022-09-27T11:12:47;10.90;99.90
35804;DHT22;21924;51.934;7.414;2022-09-27T11:15:52;11.00;99.90
35804;DHT22;21924;51.934;7.414;2022-09-27T11:24:31;11.40;99.90
35804;DHT22;21924;51.934;7.414;2022-09-27T11:30:23;12.00;99.90
35804;DHT22;21924;51.934;7.414;2022-09-27T11:33:16;12.30;99.90
35804;DHT22;21924;51.934;7.414;2022-09-27T11:36:10;12.50;99.90
35804;DHT22;21924;51.934;7.414;2022-09-27T11:44:59;12.60;99.90
35804;DHT22;21924;51.934;7.414;2022-09-27T11:48:07;12.50;99.90
35804;DHT22;21924;51.934;7.414;2022-09-27T11:50:55;12.50;99.90
35804;DHT22;21924;51.934;7.414;2022-09-27T12:07:49;12.70;99.90
35804;DHT22;21924;51.934;7.414;2022-09-27T12:10:35;12.70;99.90
35804;DHT22;21924;51.934;7.414;2022-09-27T12:13:25;12.60;99.90
35804;DHT22;21924;51.934;7.414;2022-09-27T12:16:12;12.50;99.90
35804;DHT22;21924;51.934;7.414;2022-09-27T12:18:58;12.60;99.90
35804;DHT22;21924;51.934;7.414;2022-09-27T12:21:44;13.00;99.90
35804;DHT22;21924;51.934;7.414;2022-09-27T12:24:28;13.50;99.90
35804;DHT22;21924;51.934;7.414;2022-09-27T12:27:15;13.90;99.90
35804;DHT22;21924;51.934;7.414;2022-09-27T12:30:02;14.00;99.90
35804;DHT22;21924;51.934;7.414;2022-09-27T12:35:51;13.80;99.90
35804;DHT22;21924;51.934;7.414;2022-09-27T12:41:21;13.60;99.90
35804;DHT22;21924;51.934;7.414;2022-09-27T12:44:07;13.70;99.90
35804;DHT22;21924;51.934;7.414;2022-09-27T12:52:43;13.70;99.90
35804;DHT22;21924;51.934;7.414;2022-09-27T13:00:57;13.10;99.90
35804;DHT22;21924;51.934;7.414;2022-09-27T13:03:50;13.00;99.90
35804;DHT22;21924;51.934;7.414;2022-09-27T13:12:07;13.10;99.90
35804;DHT22;21924;51.934;7.414;2022-09-27T13:15:00;13.00;99.90
35804;DHT22;21924;51.934;7.414;2022-09-27T13:17:49;12.90;99.90
35804;DHT22;21924;51.934;7.414;2022-09-27T13:26:02;12.40;99.90
35804;DHT22;21924;51.934;7.414;2022-09-27T13:34:46;12.20;99.90
35804;DHT22;21924;51.934;7.414;2022-09-27T13:40:44;12.30;99.90
35804;DHT22;21924;51.934;7.414;2022-09-27T13:43:35;12.30;99.90
35804;DHT22;21924;51.934;7.414;2022-09-27T13:46:24;12.20;99.90
35804;DHT22;21924;51.934;7.414;2022-09-27T13:49:19;12.10;99.90
35804;DHT22;21924;51.934;7.414;2022-09-27T13:52:14;11.90;99.90
35804;DHT22;21924;51.934;7.414;2022-09-27T13:55:03;11.80;99.90
35804;DHT22;21924;51.934;7.414;2022-09-27T13:57:50;11.70;99.90
35804;DHT22;21924;51.934;7.414;2022-09-27T14:00:38;11.90;99.90
35804;DHT22;21924;51.934;7.414;2022-09-27T14:03:31;12.00;99.90
35804;DHT22;21924;51.934;7.414;2022-09-27T14:06:22;12.10;99.90
35804;DHT22;21924;51.934;7.414;2022-09-27T14:09:15;12.00;99.90
35804;DHT22;21924;51.934;7.414;2022-09-27T14:12:02;12.10;99.90
35804;DHT22;21924;51.934;7.414;2022-09-27T14:14:48;12.10;99.90
35804;DHT22;21924;51.934;7.414;2022-09-27T14:17:34;12.20;99.90
35804;DHT22;21924;51.934;7.414;2022-09-27T14:20:35;12.10;99.90
35804;DHT22;21924;51.934;7.414;2022-09-27T14:23:21;12.00;99.90
35804;DHT22;21924;51.934;7.414;2022-09-27T14:26:17;12.00;99.90
35804;DHT22;21924;51.934;7.414;2022-09-27T14:29:14;12.20;99.90
35804;DHT22;21924;51.934;7.414;2022-09-27T14:32:05;12.10;99.90
35804;DHT22;21924;51.934;7.414;2022-09-27T14:38:15;12.10;99.90
35804;DHT22;21924;51.934;7.414;2022-09-27T14:41:00;12.20;99.90
35804;DHT22;21924;51.934;7.414;2022-09-27T14:43:45;12.20;99.90
35804;DHT22;21924;51.934;7.414;2022-09-27T14:46:32;12.20;99.90
35804;DHT22;21924;51.934;7.414;2022-09-27T14:49:19;12.20;99.90
35804;DHT22;21924;51.934;7.414;2022-09-27T14:52:13;12.20;99.90
35804;DHT22;21924;51.934;7.414;2022-09-27T14:54:59;12.30;99.90
35804;DHT22;21924;51.934;7.414;2022-09-27T14:57:48;12.40;99.90
35804;DHT22;21924;51.934;7.414;2022-09-27T15:00:34;12.30;99.90
35804;DHT22;21924;51.934;7.414;2022-09-27T15:03:30;12.30;99.90
35804;DHT22;21924;51.934;7.414;2022-09-27T15:06:15;12.30;99.90
35804;DHT22;21924;51.934;7.414;2022-09-27T15:09:00;12.30;99.90
35804;DHT22;21924;51.934;7.414;2022-09-27T15:11:46;12.30;99.90
35804;DHT22;21924;51.934;7.414;2022-09-27T15:14:34;12.30;99.90
35804;DHT22;21924;51.934;7.414;2022-09-27T15:17:23;12.20;99.90
35804;DHT22;21924;51.934;7.414;2022-09-27T15:20:17;12.10;99.90
35804;DHT22;21924;51.934;7.414;2022-09-27T15:23:03;12.10;99.90
35804;DHT22;21924;51.934;7.414;2022-09-27T15:26:49;12.10;99.90
35804;DHT22;21924;51.934;7.414;2022-09-27T15:29:01;12.20;99.90
35804;DHT22;21924;51.934;7.414;2022-09-27T15:31:56;12.20;99.90
35804;DHT22;21924;51.934;7.414;2022-09-27T15:34:41;12.20;99.90
35804;DHT22;21924;51.934;7.414;2022-09-27T15:37:26;12.20;99.90
35804;DHT22;21924;51.934;7.414;2022-09-27T15:43:01;12.10;99.90
35804;DHT22;21924;51.934;7.414;2022-09-27T15:45:49;12.10;99.90
35804;DHT22;21924;51.934;7.414;2022-09-27T15:48:33;12.10;99.90
35804;DHT22;21924;51.934;7.414;2022-09-27T15:51:39;12.10;99.90
35804;DHT22;21924;51.934;7.414;2022-09-27T15:54:24;11.90;99.90
35804;DHT22;21924;51.934;7.414;2022-09-27T15:57:10;11.90;99.90
35804;DHT22;21924;51.934;7.414;2022-09-27T15:59:55;11.90;99.90
35804;DHT22;21924;51.934;7.414;2022-09-27T16:02:39;11.80;99.90
35804;DHT22;21924;51.934;7.414;2022-09-27T16:05:23;11.80;99.90
35804;DHT22;21924;51.934;7.414;2022-09-27T16:08:09;11.70;99.90
35804;DHT22;21924;51.934;7.414;2022-09-27T16:10:55;11.70;99.90
35804;DHT22;21924;51.934;7.414;2022-09-27T16:13:40;11.60;99.90
35804;DHT22;21924;51.934;7.414;2022-09-27T16:16:24;11.60;99.90
35804;DHT22;21924;51.934;7.414;2022-09-27T16:19:08;11.50;99.90
35804;DHT22;21924;51.934;7.414;2022-09-27T16:21:53;11.40;99.90
35804;DHT22;21924;51.934;7.414;2022-09-27T16:24:36;11.40;99.90
35804;DHT22;21924;51.934;7.414;2022-09-27T16:27:29;11.40;99.90
35804;DHT22;21924;51.934;7.414;2022-09-27T16:30:14;11.30;99.90
35804;DHT22;21924;51.934;7.414;2022-09-27T16:32:58;11.20;99.90
35804;DHT22;21924;51.934;7.414;2022-09-27T16:35:42;11.10;99.90
35804;DHT22;21924;51.934;7.414;2022-09-27T16:38:27;11.10;99.90
35804;DHT22;21924;51.934;7.414;2022-09-27T16:41:12;11.00;99.90
35804;DHT22;21924;51.934;7.414;2022-09-27T16:43:56;11.00;99.90
35804;DHT22;21924;51.934;7.414;2022-09-27T16:46:41;10.90;99.90
35804;DHT22;21924;51.934;7.414;2022-09-27T16:49:26;10.90;99.90
35804;DHT22;21924;51.934;7.414;2022-09-27T16:52:29;10.80;99.90
35804;DHT22;21924;51.934;7.414;2022-09-27T16:55:15;10.70;99.90
35804;DHT22;21924;51.934;7.414;2022-09-27T16:58:06;10.60;99.90
35804;DHT22;21924;51.934;7.414;2022-09-27T17:00:55;10.60;99.90
35804;DHT22;21924;51.934;7.414;2022-09-27T17:03:40;10.60;99.90
35804;DHT22;21924;51.934;7.414;2022-09-27T17:06:25;10.50;99.90
35804;DHT22;21924;51.934;7.414;2022-09-27T17:09:11;10.40;99.90
35804;DHT22;21924;51.934;7.414;2022-09-27T17:11:55;10.40;99.90
35804;DHT22;21924;51.934;7.414;2022-09-27T17:14:39;10.30;99.90
35804;DHT22;21924;51.934;7.414;2022-09-27T17:17:23;10.30;99.90
35804;DHT22;21924;51.934;7.414;2022-09-27T17:20:08;10.20;99.90
35804;DHT22;21924;51.934;7.414;2022-09-27T17:22:53;10.10;99.90
35804;DHT22;21924;51.934;7.414;2022-09-27T17:25:37;10.10;99.90
35804;DHT22;21924;51.934;7.414;2022-09-27T17:28:22;10.10;99.90
35804;DHT22;21924;51.934;7.414;2022-09-27T17:31:06;10.00;99.90
35804;DHT22;21924;51.934;7.414;2022-09-27T17:33:54;10.00;99.90
35804;DHT22;21924;51.934;7.414;2022-09-27T17:36:40;10.00;99.90
35804;DHT22;21924;51.934;7.414;2022-09-27T17:39:25;9.90;99.90
35804;DHT22;21924;51.934;7.414;2022-09-27T17:42:09;9.90;99.90
35804;DHT22;21924;51.934;7.414;2022-09-27T17:44:54;9.80;99.90
35804;DHT22;21924;51.934;7.414;2022-09-27T17:47:38;9.80;99.90
35804;DHT22;21924;51.934;7.414;2022-09-27T17:50:44;9.70;99.90
35804;DHT22;21924;51.934;7.414;2022-09-27T17:53:28;9.70;99.90
35804;DHT22;21924;51.934;7.414;2022-09-27T17:56:13;9.70;99.90
35804;DHT22;21924;51.934;7.414;2022-09-27T17:58:58;9.60;99.90
35804;DHT22;21924;51.934;7.414;2022-09-27T18:01:44;9.60;99.90
35804;DHT22;21924;51.934;7.414;2022-09-27T18:04:30;9.60;99.90
35804;DHT22;21924;51.934;7.414;2022-09-27T18:07:15;9.60;99.90
35804;DHT22;21924;51.934;7.414;2022-09-27T18:09:59;9.50;99.90
35804;DHT22;21924;51.934;7.414;2022-09-27T18:12:44;9.50;99.90
35804;DHT22;21924;51.934;7.414;2022-09-27T18:15:27;9.50;99.90
35804;DHT22;21924;51.934;7.414;2022-09-27T18:18:12;9.40;99.90
35804;DHT22;21924;51.934;7.414;2022-09-27T18:21:00;9.40;99.90
35804;DHT22;21924;51.934;7.414;2022-09-27T18:23:45;9.40;99.90
35804;DHT22;21924;51.934;7.414;2022-09-27T18:26:29;9.40;99.90
35804;DHT22;21924;51.934;7.414;2022-09-27T18:29:16;9.30;99.90
35804;DHT22;21924;51.934;7.414;2022-09-27T18:32:04;9.30;99.90
35804;DHT22;21924;51.934;7.414;2022-09-27T18:34:48;9.30;99.90
35804;DHT22;21924;51.934;7.414;2022-09-27T18:37:32;9.30;99.90
35804;DHT22;21924;51.934;7.414;2022-09-27T18:40:17;9.30;99.90
35804;DHT22;21924;51.934;7.414;2022-09-27T18:43:01;9.30;99.90
35804;DHT22;21924;51.934;7.414;2022-09-27T18:45:45;9.20;99.90
35804;DHT22;21924;51.934;7.414;2022-09-27T18:48:30;9.20;99.90
35804;DHT22;21924;51.934;7.414;2022-09-27T18:51:16;9.20;99.90
35804;DHT22;21924;51.934;7.414;2022-09-27T18:54:01;9.20;99.90
35804;DHT22;21924;51.934;7.414;2022-09-27T18:56:47;9.30;99.90
35804;DHT22;21924;51.934;7.414;2022-09-27T18:59:31;9.30;99.90
35804;DHT22;21924;51.934;7.414;2022-09-27T19:02:15;9.30;99.90
35804;DHT22;21924;51.934;7.414;2022-09-27T19:04:59;9.30;99.90
35804;DHT22;21924;51.934;7.414;2022-09-27T19:07:43;9.30;99.90
35804;DHT22;21924;51.934;7.414;2022-09-27T19:10:27;9.30;99.90
35804;DHT22;21924;51.934;7.414;2022-09-27T19:13:11;9.30;99.90
35804;DHT22;21924;51.934;7.414;2022-09-27T19:15:55;9.30;99.90
35804;DHT22;21924;51.934;7.414;2022-09-27T19:18:40;9.20;99.90
35804;DHT22;21924;51.934;7.414;2022-09-27T19:21:25;9.30;99.90
35804;DHT22;21924;51.934;7.414;2022-09-27T19:24:10;9.20;99.90
35804;DHT22;21924;51.934;7.414;2022-09-27T19:26:55;9.20;99.90
35804;DHT22;21924;51.934;7.414;2022-09-27T19:29:40;9.20;99.90
35804;DHT22;21924;51.934;7.414;2022-09-27T19:32:24;9.20;99.90
35804;DHT22;21924;51.934;7.414;2022-09-27T19:35:08;9.20;99.90
35804;DHT22;21924;51.934;7.414;2022-09-27T19:37:54;9.20;99.90
35804;DHT22;21924;51.934;7.414;2022-09-27T19:40:38;9.20;99.90
35804;DHT22;21924;51.934;7.414;2022-09-27T19:43:22;9.30;99.90
35804;DHT22;21924;51.934;7.414;2022-09-27T19:46:15;9.20;99.90